Time;durP1;ratioP1;P1;durP2;ratioP2;P2;SDS_P1;SDS_P2;PMS_P1;PMS_P2;Temp;Humidity;BMP_temperature;BMP_pressure;BME280_temperature;BME280_humidity;BME280_pressure;Samples;Min_cycle;Max_cycle;Signal;HPM_P1;HPM_P2
2023/01/22 00:00:33;;;;;;;7.30;4.53;;;3.00;99.90;;;;;;10437576;28;20240;-78
2023/01/22 00:05:35;;;;;;;4.83;3.70;;;3.50;99.90;;;;;;10451379;28;20671;-78
2023/01/22 00:10:38;;;;;;;3.83;3.23;;;4.10;99.90;;;;;;10429867;28;20226;-78
2023/01/22 00:15:41;;;;;;;9.83;6.50;;;4.70;99.90;;;;;;10452387;28;20320;-78
2023/01/22 00:20:51;;;;;;;7.57;5.37;;;4.20;99.90;;;;;;10471795;28;20231;-78
2023/01/22 00:26:02;;;;;;;8.33;5.33;;;4.30;99.90;;;;;;10452920;28;20253;-78
2023/01/22 00:31:05;;;;;;;8.20;6.17;;;4.70;99.90;;;;;;10453177;28;20866;-78
2023/01/22 00:36:12;;;;;;;5.73;4.80;;;4.00;99.90;;;;;;10450945;28;20304;-78
2023/01/22 00:41:16;;;;;;;8.30;5.90;;;4.10;99.90;;;;;;10451032;28;20283;-77
2023/01/22 00:46:18;;;;;;;7.97;5.80;;;3.30;99.90;;;;;;10457645;28;20222;-78
2023/01/22 00:51:21;;;;;;;9.20;5.63;;;4.40;99.90;;;;;;10451683;28;20231;-78
2023/01/22 00:56:23;;;;;;;6.10;4.73;;;3.60;99.90;;;;;;10450255;28;20258;-78
2023/01/22 01:01:26;;;;;;;7.37;4.77;;;2.70;99.90;;;;;;10478810;28;20260;-78
2023/01/22 01:06:28;;;;;;;32.53;7.57;;;3.30;99.90;;;;;;10461135;28;20289;-78
2023/01/22 01:11:31;;;;;;;8.10;5.43;;;4.60;99.90;;;;;;10451347;28;20253;-78
2023/01/22 01:16:34;;;;;;;7.73;5.00;;;3.50;99.90;;;;;;10450108;28;20285;-78
2023/01/22 01:21:37;;;;;;;6.53;3.93;;;4.80;99.90;;;;;;10450440;28;20288;-77
2023/01/22 01:26:41;;;;;;;10.90;7.63;;;5.70;99.90;;;;;;10450735;28;20301;-78
2023/01/22 01:31:44;;;;;;;11.13;6.87;;;5.90;99.90;;;;;;10450921;28;20309;-78
2023/01/22 01:36:47;;;;;;;8.93;5.87;;;5.50;99.90;;;;;;10449120;28;20711;-78
2023/01/22 01:41:51;;;;;;;5.27;3.90;;;5.20;99.90;;;;;;10450203;28;20234;-78
2023/01/22 01:47:00;;;;;;;4.17;2.80;;;4.60;99.90;;;;;;10449651;28;21001;-78
2023/01/22 01:52:08;;;;;;;12.53;7.43;;;6.20;99.90;;;;;;10431045;28;20243;-78
2023/01/22 01:57:15;;;;;;;9.43;8.10;;;5.90;99.90;;;;;;10449408;28;20684;-78
2023/01/22 02:02:21;;;;;;;7.17;5.70;;;3.80;99.90;;;;;;10431763;28;20239;-78
2023/01/22 02:07:24;;;;;;;9.33;7.03;;;3.60;99.90;;;;;;10449406;28;20249;-78
2023/01/22 02:12:26;;;;;;;11.73;9.07;;;3.70;99.90;;;;;;10447429;28;20312;-78
2023/01/22 02:17:29;;;;;;;24.87;9.10;;;4.80;99.90;;;;;;10441194;28;20695;-78
2023/01/22 02:22:36;;;;;;;11.77;7.70;;;4.60;99.90;;;;;;10464806;28;20234;-78
2023/01/22 02:27:38;;;;;;;8.33;5.60;;;4.00;99.90;;;;;;10431284;28;20299;-78
2023/01/22 02:32:41;;;;;;;10.33;7.13;;;4.50;99.90;;;;;;10430742;28;20238;-77
2023/01/22 02:37:43;;;;;;;13.57;7.37;;;4.40;99.90;;;;;;10405514;28;20289;-78
2023/01/22 02:42:46;;;;;;;22.10;10.27;;;5.90;99.90;;;;;;10406387;28;20704;-78
2023/01/22 02:47:49;;;;;;;14.53;8.40;;;6.20;99.90;;;;;;10407707;28;20250;-78
2023/01/22 02:52:51;;;;;;;10.90;7.17;;;5.50;99.90;;;;;;10446613;28;20380;-78
2023/01/22 02:57:54;;;;;;;5.87;4.80;;;5.80;99.90;;;;;;10446862;28;20246;-78
2023/01/22 03:02:57;;;;;;;8.97;5.73;;;5.30;99.90;;;;;;10446532;28;20715;-78
2023/01/22 03:08:01;;;;;;;8.93;6.33;;;6.20;99.90;;;;;;10429362;28;20246;-78
2023/01/22 03:23:52;;;;;;;12.97;7.50;;;5.80;99.90;;;;;;10446492;28;20221;-78
2023/01/22 03:28:55;;;;;;;11.97;7.13;;;5.70;99.90;;;;;;10438350;28;20249;-78
2023/01/22 03:33:58;;;;;;;8.27;5.63;;;5.30;99.90;;;;;;10478090;28;20344;-78
2023/01/22 03:39:00;;;;;;;14.87;8.87;;;5.50;99.90;;;;;;10441490;28;20616;-78
2023/01/22 03:44:04;;;;;;;8.63;4.60;;;4.90;99.90;;;;;;10437153;28;20285;-78
2023/01/22 03:49:12;;;;;;;12.93;9.43;;;5.00;99.90;;;;;;10459422;28;20275;-78
2023/01/22 03:54:16;;;;;;;13.23;8.63;;;4.90;99.90;;;;;;10426961;28;20248;-78
2023/01/22 03:59:19;;;;;;;13.83;9.47;;;5.40;99.90;;;;;;10453126;28;20254;-78
2023/01/22 04:04:22;;;;;;;5.10;4.37;;;5.40;99.90;;;;;;10436172;28;20234;-78
2023/01/22 04:09:25;;;;;;;9.07;6.17;;;5.90;99.90;;;;;;10436582;28;20207;-78
2023/01/22 04:14:27;;;;;;;7.77;4.20;;;5.00;99.90;;;;;;10444198;28;20822;-78
2023/01/22 04:19:33;;;;;;;7.83;5.07;;;6.20;99.90;;;;;;10435750;28;20627;-78
2023/01/22 04:25:01;;;;;;;15.63;9.33;;;6.20;99.90;;;;;;10429859;28;20226;-78
2023/01/22 04:30:06;;;;;;;11.10;6.90;;;4.60;99.90;;;;;;10451473;28;20213;-78
2023/01/22 04:35:09;;;;;;;12.27;8.47;;;5.80;99.90;;;;;;10450830;28;20265;-78
2023/01/22 04:40:19;;;;;;;18.23;9.60;;;4.30;99.90;;;;;;10451282;28;20610;-78
2023/01/22 04:45:23;;;;;;;13.57;10.30;;;6.30;99.90;;;;;;10471989;28;20239;-78
2023/01/22 04:50:29;;;;;;;5.80;3.50;;;6.30;99.90;;;;;;10449896;28;20232;-78
2023/01/22 04:55:32;;;;;;;14.47;9.03;;;7.20;99.90;;;;;;10434048;28;20256;-78
2023/01/22 05:00:39;;;;;;;13.33;8.30;;;6.90;99.90;;;;;;10449921;28;20240;-78
2023/01/22 05:05:43;;;;;;;7.47;5.30;;;6.90;99.90;;;;;;10450981;28;20953;-78
2023/01/22 05:10:46;;;;;;;18.50;10.40;;;7.30;99.90;;;;;;10433193;28;20255;-78
2023/01/22 05:16:00;;;;;;;18.03;11.20;;;6.70;99.90;;;;;;10449197;28;20322;-79
2023/01/22 05:21:03;;;;;;;11.87;8.87;;;5.80;99.90;;;;;;10433745;28;20274;-79
2023/01/22 05:26:08;;;;;;;10.17;6.90;;;5.90;99.90;;;;;;10450250;28;20233;-78
2023/01/22 05:31:15;;;;;;;12.57;8.17;;;6.10;99.90;;;;;;10449987;28;20211;-78
2023/01/22 05:36:38;;;;;;;10.63;7.33;;;5.30;99.90;;;;;;10473535;28;20317;-78
2023/01/22 05:41:48;;;;;;;15.83;10.00;;;5.90;99.90;;;;;;10488961;28;20702;-78
2023/01/22 05:46:51;;;;;;;19.10;11.20;;;6.60;99.90;;;;;;10468162;28;20362;-78
2023/01/22 05:52:02;;;;;;;17.03;9.50;;;4.30;99.90;;;;;;10431677;28;20207;-78
2023/01/22 05:57:07;;;;;;;18.63;11.90;;;5.50;99.90;;;;;;10431667;28;20250;-78
2023/01/22 06:02:12;;;;;;;19.60;12.77;;;6.70;99.90;;;;;;10449807;28;20615;-78
2023/01/22 06:07:18;;;;;;;9.03;6.03;;;5.50;99.90;;;;;;10447703;28;20235;-78
2023/01/22 06:12:21;;;;;;;13.67;9.53;;;5.50;99.90;;;;;;10448665;28;20211;-78
2023/01/22 06:17:24;;;;;;;20.63;12.50;;;4.80;99.90;;;;;;10431138;28;21225;-78
2023/01/22 06:22:30;;;;;;;18.13;10.40;;;4.90;99.90;;;;;;10431029;28;20210;-78
2023/01/22 06:27:36;;;;;;;10.47;7.07;;;4.60;99.90;;;;;;10431263;28;20246;-78
2023/01/22 06:32:39;;;;;;;15.03;8.90;;;4.80;99.90;;;;;;10431307;28;20241;-78
2023/01/22 06:37:45;;;;;;;19.93;12.13;;;4.60;99.90;;;;;;10463324;28;20317;-78
2023/01/22 06:42:48;;;;;;;19.70;11.40;;;4.40;99.90;;;;;;10430787;28;20280;-78
2023/01/22 06:47:51;;;;;;;18.30;11.73;;;3.90;99.90;;;;;;10464070;28;20211;-78
2023/01/22 06:52:54;;;;;;;17.13;10.57;;;4.70;99.90;;;;;;10446792;28;20248;-78
2023/01/22 06:57:56;;;;;;;20.23;11.83;;;4.80;99.90;;;;;;10430372;28;20267;-78
2023/01/22 07:02:59;;;;;;;15.50;10.23;;;5.10;99.90;;;;;;10452327;28;20441;-78
2023/01/22 07:08:02;;;;;;;16.50;10.03;;;5.90;99.90;;;;;;10455768;28;20260;-78
2023/01/22 07:13:06;;;;;;;14.70;7.23;;;5.70;99.90;;;;;;10455441;28;20233;-78
2023/01/22 07:18:10;;;;;;;15.80;9.87;;;5.50;99.90;;;;;;10454952;28;20338;-78
2023/01/22 07:23:13;;;;;;;7.90;4.90;;;5.50;99.90;;;;;;10470802;28;20243;-78
2023/01/22 07:28:15;;;;;;;24.60;13.70;;;6.20;99.90;;;;;;10470288;28;20236;-78
2023/01/22 07:33:18;;;;;;;22.67;12.53;;;6.10;99.90;;;;;;10454943;28;20247;-78
2023/01/22 07:38:20;;;;;;;27.53;15.77;;;6.70;99.90;;;;;;10437923;28;20640;-78
2023/01/22 07:43:23;;;;;;;23.60;12.47;;;6.00;99.90;;;;;;10454922;28;20229;-78
2023/01/22 07:48:25;;;;;;;22.60;13.87;;;5.40;99.90;;;;;;10441654;28;20231;-78
2023/01/22 07:53:28;;;;;;;17.77;11.10;;;4.10;99.90;;;;;;10453868;28;20346;-78
2023/01/22 07:58:31;;;;;;;24.03;15.07;;;4.10;99.90;;;;;;10452926;28;20255;-78
2023/01/22 08:03:33;;;;;;;24.90;14.80;;;4.90;99.90;;;;;;10453223;28;20245;-78
2023/01/22 08:08:37;;;;;;;22.90;12.93;;;4.20;99.90;;;;;;10451349;28;20249;-78
2023/01/22 08:13:39;;;;;;;29.03;16.60;;;4.00;99.90;;;;;;10435393;28;20264;-78
2023/01/22 08:18:42;;;;;;;20.90;13.13;;;3.50;99.90;;;;;;10439879;28;20728;-78
2023/01/22 08:23:45;;;;;;;23.50;14.93;;;3.60;99.90;;;;;;10434774;28;20273;-78
2023/01/22 08:28:50;;;;;;;20.87;12.20;;;3.40;99.90;;;;;;10436088;28;20293;-78
2023/01/22 08:33:53;;;;;;;30.10;16.70;;;3.10;99.90;;;;;;10457892;28;20692;-78
2023/01/22 08:38:55;;;;;;;22.30;13.90;;;3.50;99.90;;;;;;10448141;28;20741;-78
2023/01/22 08:43:58;;;;;;;30.63;15.17;;;3.60;99.90;;;;;;10449610;28;20412;-78
2023/01/22 08:49:03;;;;;;;16.00;10.60;;;3.20;99.90;;;;;;10432731;28;20688;-78
2023/01/22 08:54:06;;;;;;;28.70;14.73;;;3.10;99.90;;;;;;10461475;28;20243;-78
2023/01/22 08:59:09;;;;;;;30.63;16.90;;;3.30;99.90;;;;;;10439643;28;20259;-79
2023/01/22 09:04:12;;;;;;;28.93;15.17;;;4.30;99.90;;;;;;10431259;28;20748;-78
2023/01/22 09:09:14;;;;;;;29.10;15.60;;;3.40;99.90;;;;;;10453624;28;20242;-78
2023/01/22 09:14:17;;;;;;;13.77;7.97;;;4.30;99.90;;;;;;10431125;28;21089;-77
2023/01/22 09:19:20;;;;;;;29.57;15.70;;;5.10;99.90;;;;;;10450593;28;20263;-78
2023/01/22 09:24:22;;;;;;;25.77;14.83;;;5.70;99.90;;;;;;10449877;28;20231;-78
2023/01/22 09:29:25;;;;;;;23.37;14.40;;;6.10;99.90;;;;;;10449663;28;20235;-78
2023/01/22 09:34:27;;;;;;;23.00;12.47;;;5.40;99.90;;;;;;10431823;28;20234;-78
2023/01/22 09:39:30;;;;;;;22.80;14.20;;;5.80;99.90;;;;;;10450499;28;20776;-77
2023/01/22 09:44:37;;;;;;;25.77;15.60;;;5.10;99.90;;;;;;10450510;28;20276;-78
2023/01/22 09:50:15;;;;;;;17.63;10.40;;;4.90;99.90;;;;;;10468004;28;20615;-78
2023/01/22 09:55:22;;;;;;;37.43;18.07;;;5.00;99.90;;;;;;9966630;28;10000790;-78
2023/01/22 10:00:40;;;;;;;28.73;16.07;;;4.80;99.90;;;;;;10313143;28;20309;-78
2023/01/22 10:05:50;;;;;;;20.03;11.97;;;4.30;99.90;;;;;;10287046;28;20256;-78
2023/01/22 10:10:52;;;;;;;14.33;9.17;;;4.10;99.90;;;;;;10293890;28;20271;-78
2023/01/22 10:15:56;;;;;;;11.93;7.80;;;4.70;99.90;;;;;;10287770;28;20312;-78
2023/01/22 10:21:03;;;;;;;25.77;16.00;;;5.00;99.90;;;;;;10298386;28;20299;-78
2023/01/22 10:26:29;;;;;;;21.60;11.90;;;5.40;99.90;;;;;;10294708;28;20296;-78
2023/01/22 10:31:35;;;;;;;28.27;17.90;;;4.70;99.90;;;;;;10441152;28;20234;-78
2023/01/22 10:36:38;;;;;;;16.97;11.23;;;5.60;99.90;;;;;;10426596;28;20262;-77
2023/01/22 10:41:41;;;;;;;27.10;17.10;;;5.10;99.90;;;;;;10444483;28;20249;-78
2023/01/22 10:46:48;;;;;;;27.47;16.60;;;4.50;99.90;;;;;;10489002;28;20235;-78
2023/01/22 10:51:56;;;;;;;29.90;15.50;;;4.40;99.90;;;;;;10450908;28;20673;-78
2023/01/22 10:57:21;;;;;;;27.23;16.13;;;4.00;99.90;;;;;;10465204;28;20257;-78
2023/01/22 11:02:25;;;;;;;27.20;15.17;;;4.80;99.90;;;;;;10485051;28;21840;-79
2023/01/22 11:07:30;;;;;;;18.83;11.47;;;4.30;99.90;;;;;;10463549;28;20235;-78
2023/01/22 11:12:53;;;;;;;23.13;13.80;;;5.50;99.90;;;;;;10448005;28;20284;-78
2023/01/22 11:18:00;;;;;;;20.07;11.20;;;5.10;99.90;;;;;;10448069;28;20325;-78
2023/01/22 11:23:15;;;;;;;20.80;12.90;;;4.30;99.90;;;;;;10447266;28;20244;-78
2023/01/22 11:28:40;;;;;;;20.77;13.07;;;4.40;99.90;;;;;;10413564;28;20234;-78
2023/01/22 11:34:10;;;;;;;25.53;16.73;;;4.00;99.90;;;;;;10447633;28;20238;-78
2023/01/22 11:39:28;;;;;;;32.60;20.53;;;4.40;99.90;;;;;;10448012;28;20258;-78
2023/01/22 11:44:57;;;;;;;35.53;20.93;;;3.90;99.90;;;;;;10450697;28;20221;-78
2023/01/22 11:50:20;;;;;;;68.13;40.90;;;3.50;99.90;;;;;;10486037;28;20239;-78
2023/01/22 11:55:45;;;;;;;46.70;25.47;;;3.90;99.90;;;;;;10457365;28;20249;-78
2023/01/22 12:01:22;;;;;;;46.03;27.23;;;3.60;99.90;;;;;;10477619;28;20266;-78
2023/01/22 12:06:54;;;;;;;58.70;31.93;;;3.70;99.90;;;;;;10482547;28;20311;-78
2023/01/22 12:12:08;;;;;;;36.87;19.03;;;3.80;99.90;;;;;;10478851;28;20637;-78
2023/01/22 12:17:34;;;;;;;52.40;27.73;;;4.60;99.90;;;;;;10436361;28;20262;-78
2023/01/22 12:22:41;;;;;;;50.50;23.63;;;4.10;99.90;;;;;;10425008;28;20243;-78
2023/01/22 12:28:03;;;;;;;24.60;12.70;;;3.70;99.90;;;;;;10452645;28;20265;-78
2023/01/22 12:33:09;;;;;;;18.70;10.87;;;3.70;99.90;;;;;;10453091;28;20285;-78
2023/01/22 12:38:49;;;;;;;33.57;19.23;;;4.40;99.90;;;;;;10453021;28;20243;-78
2023/01/22 12:44:01;;;;;;;43.23;20.23;;;4.10;99.90;;;;;;10452424;28;20231;-78
2023/01/22 12:49:09;;;;;;;58.57;28.17;;;4.20;99.90;;;;;;10452714;28;20238;-78
2023/01/22 12:54:15;;;;;;;41.67;20.13;;;4.50;99.90;;;;;;10434728;28;20728;-78
2023/01/22 12:59:49;;;;;;;35.30;19.03;;;4.40;99.90;;;;;;10451252;28;20250;-78
2023/01/22 13:04:53;;;;;;;26.80;16.13;;;4.10;99.90;;;;;;10451029;28;20635;-78
2023/01/22 13:10:06;;;;;;;35.77;19.67;;;4.80;99.90;;;;;;10451891;28;20323;-78
2023/01/22 13:15:22;;;;;;;28.80;16.93;;;5.50;99.90;;;;;;10483888;28;20318;-78
2023/01/22 13:20:26;;;;;;;24.20;14.73;;;5.20;99.90;;;;;;10441290;28;20771;-78
2023/01/22 13:25:32;;;;;;;59.43;28.57;;;5.40;99.90;;;;;;10451500;28;20236;-78
2023/01/22 13:30:34;;;;;;;28.50;17.70;;;5.30;99.90;;;;;;10433272;28;20952;-78
2023/01/22 13:35:41;;;;;;;25.50;15.73;;;6.10;99.90;;;;;;10446809;28;20274;-78
2023/01/22 13:40:43;;;;;;;27.67;16.40;;;6.40;99.90;;;;;;10448646;28;20254;-78
2023/01/22 13:45:55;;;;;;;26.07;13.70;;;5.50;99.90;;;;;;10455877;28;20282;-78
2023/01/22 13:51:02;;;;;;;12.93;8.13;;;5.80;99.90;;;;;;10465948;28;20768;-78
2023/01/22 13:56:05;;;;;;;28.10;16.20;;;5.80;99.90;;;;;;10452044;28;20247;-79
2023/01/22 14:01:10;;;;;;;37.17;22.87;;;6.00;99.90;;;;;;10461794;28;20732;-78
2023/01/22 14:06:14;;;;;;;22.57;12.97;;;5.40;99.90;;;;;;10457514;28;20239;-78
2023/01/22 14:11:17;;;;;;;21.37;11.93;;;5.70;99.90;;;;;;10447598;28;20685;-78
2023/01/22 14:16:20;;;;;;;24.63;16.03;;;5.60;99.90;;;;;;10480804;28;20285;-78
2023/01/22 14:21:23;;;;;;;36.03;20.67;;;5.00;99.90;;;;;;10447844;28;20300;-78
2023/01/22 14:26:26;;;;;;;60.47;30.63;;;4.70;99.90;;;;;;10447597;28;20288;-78
2023/01/22 14:31:29;;;;;;;35.07;20.07;;;3.90;99.90;;;;;;10466899;28;20285;-78
2023/01/22 14:36:32;;;;;;;33.17;20.20;;;3.90;99.90;;;;;;10466844;28;20243;-78
2023/01/22 14:41:35;;;;;;;35.97;22.47;;;3.30;99.90;;;;;;10458829;28;20254;-78
2023/01/22 14:46:38;;;;;;;34.93;23.23;;;2.70;99.90;;;;;;10448017;28;20226;-78
2023/01/22 14:51:41;;;;;;;42.23;24.50;;;2.50;99.90;;;;;;10447577;28;20651;-78
2023/01/22 14:56:44;;;;;;;29.60;19.03;;;;;;;;;;10450935;28;20250;-78
2023/01/22 15:01:47;;;;;;;33.70;21.03;;;2.10;99.90;;;;;;10462243;28;20254;-79
2023/01/22 15:06:50;;;;;;;35.00;19.70;;;2.20;99.90;;;;;;10454621;28;20311;-79
2023/01/22 15:11:53;;;;;;;32.80;18.60;;;2.20;99.90;;;;;;10446579;28;20312;-78
2023/01/22 15:16:56;;;;;;;46.77;24.83;;;2.30;99.90;;;;;;10421429;28;20259;-79
2023/01/22 15:22:02;;;;;;;43.03;25.27;;;2.20;99.90;;;;;;10424452;28;20267;-78
2023/01/22 15:27:05;;;;;;;30.93;19.13;;;2.20;99.90;;;;;;10412081;28;20273;-79
2023/01/22 15:32:08;;;;;;;27.10;15.67;;;2.20;99.90;;;;;;10445364;28;20812;-79
2023/01/22 15:37:13;;;;;;;52.27;26.57;;;2.80;99.90;;;;;;10413877;28;20254;-79
2023/01/22 15:42:16;;;;;;;40.60;23.20;;;2.50;99.90;;;;;;10411369;28;20244;-79
2023/01/22 15:47:19;;;;;;;20.37;12.97;;;4.30;99.90;;;;;;10411405;28;20302;-79
2023/01/22 15:52:22;;;;;;;38.50;21.10;;;6.10;99.90;;;;;;10411778;28;20239;-79
2023/01/22 15:57:25;;;;;;;35.97;22.57;;;6.40;99.90;;;;;;10412718;28;20233;-79
2023/01/22 16:02:28;;;;;;;34.10;19.90;;;6.20;99.90;;;;;;10423385;28;20228;-79
2023/01/22 16:07:31;;;;;;;40.03;23.07;;;5.00;99.90;;;;;;10419895;28;20244;-79
2023/01/22 16:12:33;;;;;;;24.50;15.23;;;5.00;99.90;;;;;;10411705;28;20229;-79
2023/01/22 16:17:37;;;;;;;40.73;24.20;;;4.50;99.90;;;;;;10443373;28;20264;-79
2023/01/22 16:22:41;;;;;;;38.00;23.20;;;4.40;99.90;;;;;;10408008;28;20433;-79
2023/01/22 16:27:45;;;;;;;42.83;23.30;;;3.90;99.90;;;;;;10410274;28;20977;-78
2023/01/22 16:32:50;;;;;;;29.33;18.33;;;3.30;99.90;;;;;;10409706;28;20696;-78
2023/01/22 16:37:53;;;;;;;34.47;21.90;;;3.40;99.90;;;;;;10409877;28;20337;-78
2023/01/22 16:42:59;;;;;;;38.00;22.20;;;3.10;99.90;;;;;;10412756;28;20264;-78
2023/01/22 16:48:02;;;;;;;28.10;18.13;;;3.20;99.90;;;;;;10410420;28;20301;-78
2023/01/22 16:53:05;;;;;;;24.00;16.30;;;4.00;99.90;;;;;;10424541;28;20247;-78
2023/01/22 16:58:08;;;;;;;38.70;23.00;;;3.30;99.90;;;;;;10412662;28;20266;-78
2023/01/22 17:03:12;;;;;;;41.10;23.63;;;2.40;99.90;;;;;;10409762;28;20223;-78
2023/01/22 17:08:16;;;;;;;40.53;23.43;;;3.40;99.90;;;;;;10436266;28;20239;-78
2023/01/22 17:13:20;;;;;;;35.70;21.13;;;;;;;;;;10424522;28;20231;-78
2023/01/22 17:18:23;;;;;;;25.63;14.47;;;3.50;99.90;;;;;;10448493;28;20296;-77
2023/01/22 17:23:26;;;;;;;37.60;20.47;;;3.50;99.90;;;;;;10450215;28;20234;-78
2023/01/22 17:28:29;;;;;;;27.97;16.23;;;3.30;99.90;;;;;;10432652;28;20687;-77
2023/01/22 17:33:33;;;;;;;34.67;17.47;;;3.30;99.90;;;;;;10447809;28;20247;-77
2023/01/22 17:38:37;;;;;;;23.70;15.93;;;4.50;99.90;;;;;;10448335;28;20238;-78
2023/01/22 17:43:42;;;;;;;34.70;21.77;;;5.10;99.90;;;;;;10448942;28;20230;-77
2023/01/22 17:48:46;;;;;;;36.93;23.10;;;3.40;99.90;;;;;;10447115;28;20242;-78
2023/01/22 17:53:51;;;;;;;35.57;19.53;;;3.60;99.90;;;;;;10459087;28;20241;-78
2023/01/22 17:58:56;;;;;;;26.97;16.03;;;3.10;99.90;;;;;;10480165;28;20655;-78
2023/01/22 18:04:05;;;;;;;31.23;18.53;;;4.60;99.90;;;;;;10431154;28;20242;-78
2023/01/22 18:09:10;;;;;;;32.80;19.97;;;5.10;99.90;;;;;;10448475;28;20682;-78
2023/01/22 18:14:20;;;;;;;36.40;20.90;;;5.00;99.90;;;;;;10466495;28;20670;-78
2023/01/22 18:19:23;;;;;;;22.07;15.13;;;5.00;99.90;;;;;;10451313;28;20701;-78
2023/01/22 18:24:29;;;;;;;37.50;21.30;;;5.20;99.90;;;;;;10457974;28;20239;-78
2023/01/22 18:29:32;;;;;;;31.53;19.53;;;4.20;99.90;;;;;;10465694;28;20227;-78
2023/01/22 18:34:35;;;;;;;31.53;19.27;;;4.40;99.90;;;;;;10452579;28;20621;-78
2023/01/22 18:39:39;;;;;;;27.83;16.07;;;6.20;99.90;;;;;;10447438;28;20670;-78
2023/01/22 18:44:42;;;;;;;24.90;16.00;;;6.20;99.90;;;;;;10445941;28;20720;-78
2023/01/22 18:49:47;;;;;;;35.47;20.80;;;5.10;99.90;;;;;;10480860;28;20235;-78
2023/01/22 18:54:51;;;;;;;28.97;18.93;;;4.70;99.90;;;;;;10446459;28;20239;-78
2023/01/22 18:59:54;;;;;;;22.33;14.40;;;5.40;99.90;;;;;;10436572;28;20250;-79
2023/01/22 19:04:58;;;;;;;39.13;23.33;;;4.20;99.90;;;;;;10488228;28;20260;-89
2023/01/22 19:10:03;;;;;;;33.97;17.53;;;4.80;99.90;;;;;;10479537;28;20214;-94
2023/01/22 19:15:07;;;;;;;47.47;24.83;;;5.00;99.90;;;;;;10487045;28;20293;-95
2023/01/22 19:20:13;;;;;;;36.70;20.80;;;5.10;99.90;;;;;;10468797;28;20226;-92
2023/01/22 19:25:17;;;;;;;35.17;21.80;;;4.50;99.90;;;;;;10444685;28;20269;-93
2023/01/22 19:30:23;;;;;;;33.70;21.10;;;5.40;99.90;;;;;;10465931;28;20265;-91
2023/01/22 19:35:27;;;;;;;38.43;21.50;;;4.70;99.90;;;;;;10439530;28;20680;-91
2023/01/22 19:40:30;;;;;;;39.83;23.37;;;4.20;99.90;;;;;;10438224;28;20304;-91
2023/01/22 19:45:35;;;;;;;38.07;23.60;;;4.40;99.90;;;;;;10455765;28;20284;-90
2023/01/22 19:50:38;;;;;;;31.73;19.50;;;3.80;99.90;;;;;;10467891;28;20231;-92
2023/01/22 19:55:43;;;;;;;31.37;18.70;;;4.30;99.90;;;;;;10459651;28;20299;-92
2023/01/22 20:00:47;;;;;;;31.80;20.07;;;4.70;99.90;;;;;;10463800;28;20327;-92
2023/01/22 20:05:51;;;;;;;30.03;19.37;;;3.90;99.90;;;;;;10436651;28;20683;-91
2023/01/22 20:10:59;;;;;;;33.10;20.00;;;4.30;99.90;;;;;;10467227;28;20631;-90
2023/01/22 20:16:03;;;;;;;29.13;19.33;;;4.50;99.90;;;;;;10453162;28;20284;-91
2023/01/22 20:21:08;;;;;;;29.73;18.30;;;4.60;99.90;;;;;;10452136;28;20260;-91
2023/01/22 20:26:13;;;;;;;29.30;18.87;;;5.60;99.90;;;;;;10434725;28;20236;-90
2023/01/22 20:31:21;;;;;;;33.53;20.97;;;5.90;99.90;;;;;;10451915;28;20258;-90
2023/01/22 20:36:29;;;;;;;25.63;16.77;;;5.30;99.90;;;;;;10451760;28;20238;-91
2023/01/22 20:41:33;;;;;;;32.93;18.43;;;5.40;99.90;;;;;;10450784;28;20290;-89
2023/01/22 20:46:39;;;;;;;29.17;19.40;;;5.10;99.90;;;;;;10472078;28;20773;-91
2023/01/22 20:51:42;;;;;;;29.17;18.70;;;4.70;99.90;;;;;;10438799;28;20242;-92
2023/01/22 20:56:46;;;;;;;31.77;18.70;;;4.30;99.90;;;;;;10443898;28;20690;-93
2023/01/22 21:01:49;;;;;;;27.23;17.87;;;4.20;99.90;;;;;;10433527;28;20246;-94
2023/01/22 21:06:53;;;;;;;26.47;16.67;;;3.90;99.90;;;;;;10452600;28;20289;-92
2023/01/22 21:11:58;;;;;;;29.33;17.93;;;3.90;99.90;;;;;;10452968;28;20223;-93
2023/01/22 21:17:02;;;;;;;21.07;15.00;;;4.30;99.90;;;;;;10408959;28;20689;-92
2023/01/22 21:22:06;;;;;;;24.90;15.87;;;5.10;99.90;;;;;;10406938;28;20239;-92
2023/01/22 21:27:09;;;;;;;24.07;13.90;;;5.20;99.90;;;;;;10423532;28;20227;-92
2023/01/22 21:32:14;;;;;;;27.67;17.60;;;4.30;99.90;;;;;;10424292;28;20214;-93
2023/01/22 21:37:24;;;;;;;26.80;16.50;;;4.80;99.90;;;;;;10423431;28;20298;-94
2023/01/22 21:47:49;;;;;;;27.97;17.73;;;4.40;99.90;;;;;;10412359;28;20224;-92
2023/01/22 21:52:53;;;;;;;22.60;14.13;;;5.10;99.90;;;;;;10411886;28;20288;-93
2023/01/22 21:57:56;;;;;;;21.00;13.03;;;4.70;99.90;;;;;;10397300;28;20738;-93
2023/01/22 22:02:58;;;;;;;33.30;21.13;;;5.00;99.90;;;;;;10396532;28;20280;-94
2023/01/22 22:08:01;;;;;;;30.07;19.20;;;4.00;99.90;;;;;;10425584;28;20623;-93
2023/01/22 22:13:04;;;;;;;27.17;18.77;;;3.50;99.90;;;;;;10450672;28;20651;-92
2023/01/22 22:18:07;;;;;;;24.30;16.20;;;3.60;99.90;;;;;;10451301;28;20292;-93
2023/01/22 22:23:09;;;;;;;28.53;18.90;;;4.10;99.90;;;;;;10449461;28;20301;-92
2023/01/22 22:28:13;;;;;;;22.07;14.77;;;4.10;99.90;;;;;;10450440;28;20284;-93
2023/01/22 22:33:16;;;;;;;29.33;17.23;;;4.50;99.90;;;;;;10462803;28;20795;-94
2023/01/22 22:38:19;;;;;;;25.70;17.10;;;4.70;99.90;;;;;;10473417;28;20268;-90
2023/01/22 22:43:21;;;;;;;34.10;17.57;;;4.20;99.90;;;;;;10452154;28;20300;-93
2023/01/22 22:48:27;;;;;;;28.67;18.20;;;4.00;99.90;;;;;;10463997;28;20649;-92
2023/01/22 22:53:29;;;;;;;32.83;19.23;;;4.00;99.90;;;;;;10431212;28;20930;-93
2023/01/22 22:58:32;;;;;;;30.57;19.10;;;3.90;99.90;;;;;;10447571;28;20238;-92
2023/01/22 23:03:36;;;;;;;28.07;17.13;;;4.20;99.90;;;;;;10463390;28;20334;-91
2023/01/22 23:08:40;;;;;;;26.10;14.97;;;3.30;99.90;;;;;;10484800;28;20257;-93
2023/01/22 23:13:44;;;;;;;29.40;17.23;;;3.60;99.90;;;;;;10446855;28;20683;-92
2023/01/22 23:18:50;;;;;;;23.10;15.57;;;3.70;99.90;;;;;;10448249;28;20276;-91
2023/01/22 23:23:53;;;;;;;23.17;14.93;;;3.50;99.90;;;;;;10446142;28;20250;-91
2023/01/22 23:29:02;;;;;;;22.93;14.47;;;3.50;99.90;;;;;;10446588;28;20745;-91
2023/01/22 23:34:06;;;;;;;25.83;13.53;;;3.50;99.90;;;;;;10430571;28;20281;-90
2023/01/22 23:39:10;;;;;;;16.80;11.53;;;3.10;99.90;;;;;;10459559;28;20270;-92
2023/01/22 23:44:13;;;;;;;19.53;12.93;;;3.10;99.90;;;;;;10443352;28;20659;-93
2023/01/22 23:49:15;;;;;;;23.87;14.80;;;3.10;99.90;;;;;;10456341;28;20202;-93
2023/01/22 23:54:18;;;;;;;19.07;11.80;;;4.20;99.90;;;;;;10455158;28;20207;-95
2023/01/22 23:59:22;;;;;;;17.77;12.07;;;3.40;99.90;;;;;;10455424;28;20199;-95
